Richmond, VT

6:49 AM EST on March 02, 2015 (GMT -0500)
Morrisville Stowe State | Change Station
CLOSE
Current Station
Airport
Location: Morrisville,
Elevation: 732 ft
Nearby Weather Stations

Elev 732 ft 44.53 °N, 72.61 °W | Updated 8 minutes ago

Snow
Snow
22 °F
Feels Like 13 °F
N
7
Wind Variable Wind from NW

Today
High -- | Low -- °F
--% Chance of Precip.
Yesterday
High -- | Low -- °F
Precip. -- in
6:27 AM 5:40 PM
Waxing Gibbous, 91% visible
Pressure 29.94 in
Visibility 0.5 miles
Clouds
Windchill 13 °F
Dew Point 17 °F
Humidity 82%
Rainfall 0.00 in
Snow Depth Not available.
UV Not available.
Pollen .30 out of 12
Air Quality Not available.
Flu Activity Not available.
SPECI KMVL 021141Z AUTO 32006KT 1/2SM SN VV013 M06/M08 A2994 RMK AO2 P0000 T10561083 TSNO

More Conditions Fewer Conditions

Pressure 29.94 in
Visibility 0.5 miles
Clouds
Windchill 13 °F
Dew Point 17 °F
Humidity 82%
Rainfall 0.00 in
Snow Depth Not available.
UV Not available.
Pollen .30 out of 12
Air Quality Not available.
Flu Activity Not available.
SPECI KMVL 021141Z AUTO 32006KT 1/2SM SN VV013 M06/M08 A2994 RMK AO2 P0000 T10561083 TSNO

More Conditions Fewer Conditions

10-Day Weather Forecast

Almanac

Astronomy

Mar. 02, 2015 Rise Set
Actual Time
Civil Twilight
Nautical Twilight
Astronomical Twilight
Moon
Length of Visible Light
Length of Day
Tomorrow will be .
, % of the Moon is Illuminated

Today's Extremes

State Highs State Lows

Community

WunderPhotos

Upload Photos

1,801,757 photos uploaded!

WunderBlogs® & News

Nearby

Air Quality

  Air Quality AQ Index Pollutant
Not available.

Snow Depth

Station Depth Elevation

Earthquake Activity

City Distance Mag. Time & Date
Minimum magnitude displayed is 2.5.

Coastal Water Temperatures

Place Temperature

Nearby Weather Stations